Time;durP1;ratioP1;P1;durP2;ratioP2;P2;SDS_P1;SDS_P2;PMS_P1;PMS_P2;Temp;Humidity;BMP_temperature;BMP_pressure;BME280_temperature;BME280_humidity;BME280_pressure;Samples;Min_cycle;Max_cycle;Signal;HPM_P1;HPM_P2
2023/01/22 00:01:16;;;;;;;7.93;5.47;;;1.80;99.90;;;;;;5038253;28;20475;-61
2023/01/22 00:03:44;;;;;;;10.60;5.90;;;1.70;99.90;;;;;;5039745;28;20472;-61
2023/01/22 00:06:14;;;;;;;8.57;5.30;;;1.70;99.90;;;;;;5048769;28;20474;-61
2023/01/22 00:08:42;;;;;;;8.57;5.03;;;1.70;99.90;;;;;;5056310;28;20467;-61
2023/01/22 00:11:11;;;;;;;7.73;5.73;;;1.70;99.90;;;;;;5056077;28;20493;-61
2023/01/22 00:13:41;;;;;;;6.60;5.57;;;1.70;99.90;;;;;;5056277;28;20469;-61
2023/01/22 00:16:11;;;;;;;6.83;5.10;;;1.60;99.90;;;;;;5056385;28;20469;-61
2023/01/22 00:18:40;;;;;;;8.33;5.60;;;1.60;99.90;;;;;;5056200;28;20467;-60
2023/01/22 00:21:12;;;;;;;8.63;5.80;;;1.60;99.90;;;;;;5056309;28;20479;-61
2023/01/22 00:23:41;;;;;;;6.47;5.63;;;1.70;99.90;;;;;;5039114;28;20468;-61
2023/01/22 00:26:16;;;;;;;6.37;5.43;;;1.70;99.90;;;;;;5036233;28;20523;-61
2023/01/22 00:28:46;;;;;;;5.70;5.07;;;1.70;99.90;;;;;;5046682;28;20501;-61
2023/01/22 00:31:16;;;;;;;6.63;4.73;;;1.70;99.90;;;;;;5047804;28;20478;-61
2023/01/22 00:33:45;;;;;;;5.73;5.10;;;1.70;99.90;;;;;;5055492;28;20459;-61
2023/01/22 00:36:16;;;;;;;5.50;4.60;;;1.60;99.90;;;;;;5048001;28;20834;-61
2023/01/22 00:38:44;;;;;;;6.00;4.70;;;1.60;99.90;;;;;;5055567;28;20459;-61
2023/01/22 00:41:13;;;;;;;6.30;4.70;;;1.70;99.90;;;;;;5055652;28;20823;-61
2023/01/22 00:43:41;;;;;;;6.80;5.00;;;1.70;99.90;;;;;;5054176;28;20470;-61
2023/01/22 00:46:12;;;;;;;7.57;5.43;;;1.70;99.90;;;;;;5055515;28;20979;-61
2023/01/22 00:48:41;;;;;;;5.43;4.57;;;1.70;99.90;;;;;;5055604;28;20826;-61
2023/01/22 00:51:11;;;;;;;6.17;4.77;;;1.70;99.90;;;;;;5055638;28;20479;-61
2023/01/22 00:53:40;;;;;;;5.73;5.03;;;1.60;99.90;;;;;;5038333;28;20899;-61
2023/01/22 00:56:08;;;;;;;5.10;4.60;;;1.70;99.90;;;;;;5035637;28;20487;-61
2023/01/22 00:58:36;;;;;;;5.60;5.00;;;1.60;99.90;;;;;;5046269;28;20463;-61
2023/01/22 01:01:05;;;;;;;5.50;5.00;;;1.70;99.90;;;;;;5044987;28;20478;-61
2023/01/22 01:03:36;;;;;;;6.87;5.13;;;1.70;99.90;;;;;;5054956;28;20517;-61
2023/01/22 01:06:06;;;;;;;6.33;4.87;;;1.70;99.90;;;;;;5061997;28;20509;-61
2023/01/22 01:08:36;;;;;;;6.67;5.37;;;1.60;99.90;;;;;;5053704;28;20479;-61
2023/01/22 01:11:07;;;;;;;6.37;5.37;;;1.60;99.90;;;;;;5055262;28;20509;-61
2023/01/22 01:13:38;;;;;;;6.47;5.60;;;1.60;99.90;;;;;;5070836;28;20560;-61
2023/01/22 01:16:08;;;;;;;6.17;5.53;;;1.70;99.90;;;;;;5055069;28;20479;-61
2023/01/22 01:18:37;;;;;;;6.83;5.20;;;1.60;99.90;;;;;;5053523;28;20569;-60
2023/01/22 01:21:06;;;;;;;7.30;5.93;;;1.60;99.90;;;;;;5055143;28;20466;-61
2023/01/22 01:23:35;;;;;;;8.40;5.90;;;1.60;99.90;;;;;;5038644;28;20478;-60
2023/01/22 01:26:06;;;;;;;7.23;5.97;;;1.60;99.90;;;;;;5034731;28;20465;-61
2023/01/22 01:28:35;;;;;;;7.30;6.60;;;1.60;99.90;;;;;;5045499;28;20470;-61
2023/01/22 01:31:04;;;;;;;6.87;6.17;;;1.60;99.90;;;;;;5045618;28;20529;-61
2023/01/22 01:33:32;;;;;;;8.23;6.17;;;1.50;99.90;;;;;;5047549;28;20487;-61
2023/01/22 01:36:04;;;;;;;7.67;6.83;;;1.50;99.90;;;;;;5046245;28;20836;-61
2023/01/22 01:38:33;;;;;;;9.20;6.70;;;1.50;99.90;;;;;;5054720;28;20547;-61
2023/01/22 01:41:02;;;;;;;7.13;6.43;;;1.50;99.90;;;;;;5054542;28;20463;-61
2023/01/22 01:43:30;;;;;;;6.53;5.93;;;1.50;99.90;;;;;;5054374;28;20466;-61
2023/01/22 01:46:00;;;;;;;7.17;6.47;;;1.50;99.90;;;;;;5051227;28;20463;-61
2023/01/22 01:48:33;;;;;;;7.87;6.57;;;1.60;99.90;;;;;;5054189;28;20451;-61
2023/01/22 01:51:09;;;;;;;7.00;6.30;;;1.60;99.90;;;;;;5069714;28;20516;-61
2023/01/22 01:53:39;;;;;;;8.13;7.07;;;1.50;99.90;;;;;;5037746;28;20554;-61
2023/01/22 01:56:12;;;;;;;7.70;6.90;;;1.50;99.90;;;;;;5034494;28;20476;-61
2023/01/22 01:58:43;;;;;;;9.20;7.33;;;1.60;99.90;;;;;;5045767;28;20470;-61
2023/01/22 02:01:14;;;;;;;10.63;6.93;;;1.60;99.90;;;;;;5041749;28;20484;-61
2023/01/22 02:03:43;;;;;;;9.27;7.33;;;1.60;99.90;;;;;;5053819;28;20470;-61
2023/01/22 02:06:14;;;;;;;8.37;7.57;;;1.60;99.90;;;;;;5036235;28;20467;-61
2023/01/22 02:08:46;;;;;;;9.97;7.27;;;1.60;99.90;;;;;;5030873;28;20828;-61
2023/01/22 02:11:15;;;;;;;8.80;7.90;;;1.60;99.90;;;;;;5034196;28;21013;-61
2023/01/22 02:13:48;;;;;;;10.07;8.13;;;1.50;99.90;;;;;;5033811;28;20812;-61
2023/01/22 02:16:18;;;;;;;8.87;7.97;;;1.50;99.90;;;;;;5033338;28;20486;-61
2023/01/22 02:18:48;;;;;;;9.07;8.17;;;1.50;99.90;;;;;;5033957;28;20491;-61
2023/01/22 02:21:36;;;;;;;9.20;7.70;;;1.60;99.90;;;;;;5032505;28;20472;-61
2023/01/22 02:24:08;;;;;;;10.00;7.83;;;1.60;99.90;;;;;;5033531;28;20460;-61
2023/01/22 02:26:38;;;;;;;9.93;8.43;;;1.60;99.90;;;;;;5032290;28;20472;-61
2023/01/22 02:29:09;;;;;;;8.67;7.67;;;1.50;99.90;;;;;;5044439;28;20572;-61
2023/01/22 02:31:39;;;;;;;8.57;7.67;;;1.50;99.90;;;;;;5047086;28;20544;-61
2023/01/22 02:34:08;;;;;;;8.83;7.80;;;1.50;99.90;;;;;;5043168;28;20456;-61
2023/01/22 02:36:39;;;;;;;10.13;7.70;;;1.50;99.90;;;;;;5048806;28;20466;-61
2023/01/22 02:39:07;;;;;;;8.63;7.77;;;1.50;99.90;;;;;;5052159;28;20463;-61
2023/01/22 02:41:35;;;;;;;10.57;8.17;;;1.50;99.90;;;;;;5052241;28;20474;-60
2023/01/22 02:44:03;;;;;;;10.10;7.70;;;1.40;99.90;;;;;;5053378;28;21026;-61
2023/01/22 02:46:32;;;;;;;8.03;7.23;;;1.40;99.90;;;;;;5053136;28;20513;-61
2023/01/22 02:49:00;;;;;;;8.63;7.60;;;1.50;99.90;;;;;;5068651;28;20472;-61
2023/01/22 02:51:30;;;;;;;8.50;7.60;;;1.50;99.90;;;;;;5068689;28;20494;-60
2023/01/22 02:54:00;;;;;;;10.03;7.83;;;1.50;99.90;;;;;;5033649;28;21047;-61
2023/01/22 02:56:28;;;;;;;9.33;7.43;;;1.50;99.90;;;;;;5031684;28;20517;-61
2023/01/22 02:58:56;;;;;;;9.00;7.63;;;1.50;99.90;;;;;;5043889;28;20870;-61
2023/01/22 03:01:25;;;;;;;7.23;6.33;;;1.50;99.90;;;;;;5039025;28;20471;-61
2023/01/22 03:03:56;;;;;;;7.23;6.10;;;1.50;99.90;;;;;;5034033;28;20888;-61
2023/01/22 03:06:26;;;;;;;7.10;6.40;;;1.50;99.90;;;;;;5031415;28;20471;-61
2023/01/22 03:09:00;;;;;;;7.87;6.87;;;1.50;99.90;;;;;;5028452;28;20469;-61
2023/01/22 03:11:34;;;;;;;8.73;6.30;;;1.60;99.90;;;;;;5011765;28;20488;-61
2023/01/22 03:22:24;;;;;;;8.07;6.60;;;1.60;99.90;;;;;;5019086;28;20962;-61
2023/01/22 03:24:55;;;;;;;11.97;6.83;;;1.60;99.90;;;;;;5031402;28;20470;-61
2023/01/22 03:27:26;;;;;;;7.67;6.03;;;1.70;99.90;;;;;;5032591;28;20468;-61
2023/01/22 03:29:55;;;;;;;8.67;6.77;;;1.60;99.90;;;;;;5042272;28;20468;-61
2023/01/22 03:32:24;;;;;;;7.13;6.00;;;1.60;99.90;;;;;;5049264;28;20483;-61
2023/01/22 03:34:52;;;;;;;7.43;6.70;;;1.60;99.90;;;;;;5057288;28;20471;-61
2023/01/22 03:37:22;;;;;;;6.87;6.27;;;1.60;99.90;;;;;;5068287;28;20898;-61
2023/01/22 03:39:56;;;;;;;8.50;6.77;;;1.50;99.90;;;;;;5051293;28;20466;-61
2023/01/22 03:42:35;;;;;;;7.80;6.87;;;1.60;99.90;;;;;;5049574;28;20475;-60
2023/01/22 03:45:11;;;;;;;7.97;7.17;;;1.60;99.90;;;;;;5051183;28;20994;-61
2023/01/22 03:47:39;;;;;;;9.13;6.80;;;1.60;99.90;;;;;;5052545;28;20567;-61
2023/01/22 03:50:21;;;;;;;7.53;6.53;;;1.60;99.90;;;;;;5051218;28;21067;-61
2023/01/22 03:52:49;;;;;;;9.53;6.90;;;1.60;99.90;;;;;;5041065;28;20495;-61
2023/01/22 03:55:19;;;;;;;8.60;7.23;;;1.50;99.90;;;;;;5032256;28;20476;-61
2023/01/22 03:57:47;;;;;;;8.00;6.77;;;1.50;99.90;;;;;;5052030;28;21049;-61
2023/01/22 04:00:17;;;;;;;7.37;6.67;;;1.50;99.90;;;;;;5037574;28;20472;-61
2023/01/22 04:02:48;;;;;;;9.80;6.93;;;1.50;99.90;;;;;;5031142;28;20976;-61
2023/01/22 04:05:21;;;;;;;9.17;6.77;;;1.50;99.90;;;;;;5042619;28;20486;-61
2023/01/22 04:07:50;;;;;;;7.93;7.13;;;1.50;99.90;;;;;;5052279;28;20606;-61
2023/01/22 04:10:23;;;;;;;7.60;6.30;;;1.50;99.90;;;;;;5035423;28;20499;-61
2023/01/22 04:12:53;;;;;;;7.87;6.73;;;1.50;99.90;;;;;;5045948;28;20512;-61
2023/01/22 04:15:22;;;;;;;7.23;6.40;;;1.50;99.90;;;;;;5030975;28;20530;-61
2023/01/22 04:17:52;;;;;;;7.80;6.30;;;1.50;99.90;;;;;;5030974;28;20480;-61
2023/01/22 04:20:30;;;;;;;8.53;6.57;;;1.50;99.90;;;;;;5030844;28;20464;-61
2023/01/22 04:23:09;;;;;;;7.57;6.50;;;1.60;99.90;;;;;;5030766;28;20538;-61
2023/01/22 04:25:40;;;;;;;7.57;6.23;;;1.60;99.90;;;;;;5030647;28;20911;-61
2023/01/22 04:28:09;;;;;;;8.30;6.33;;;1.50;99.90;;;;;;5038160;28;20470;-61
2023/01/22 04:30:38;;;;;;;8.13;7.00;;;1.60;99.90;;;;;;5034340;28;20485;-60
2023/01/22 04:33:25;;;;;;;7.70;6.03;;;1.60;99.90;;;;;;5040872;28;20507;-61
2023/01/22 04:36:05;;;;;;;6.77;4.70;;;1.60;99.90;;;;;;5042359;28;21058;-61
2023/01/22 04:38:33;;;;;;;6.37;5.77;;;1.60;99.90;;;;;;5067184;28;20468;-61
2023/01/22 04:41:02;;;;;;;7.17;5.67;;;1.60;99.90;;;;;;5053422;28;21075;-61
2023/01/22 04:43:30;;;;;;;9.80;6.53;;;1.70;99.90;;;;;;5054226;28;21050;-61
2023/01/22 04:45:58;;;;;;;8.47;6.30;;;1.70;99.90;;;;;;5055642;28;20462;-61
2023/01/22 04:48:30;;;;;;;7.57;5.90;;;1.60;99.90;;;;;;5054187;28;20489;-61
2023/01/22 04:51:00;;;;;;;6.70;5.63;;;1.60;99.90;;;;;;5070932;28;20458;-61
2023/01/22 04:53:30;;;;;;;7.40;6.00;;;1.60;99.90;;;;;;5038245;28;20557;-60
2023/01/22 04:55:58;;;;;;;6.63;5.47;;;1.60;99.90;;;;;;5034103;28;20475;-61
2023/01/22 04:58:29;;;;;;;8.97;6.00;;;1.60;99.90;;;;;;5043812;28;20510;-61
2023/01/22 05:00:59;;;;;;;7.93;5.87;;;1.60;99.90;;;;;;5034926;28;20480;-61
2023/01/22 05:03:27;;;;;;;8.27;6.20;;;1.70;99.90;;;;;;5041137;28;21024;-61
2023/01/22 05:05:56;;;;;;;6.30;5.70;;;1.60;99.90;;;;;;5041571;28;20486;-61
2023/01/22 05:08:24;;;;;;;6.57;5.73;;;1.70;99.90;;;;;;5035321;28;20463;-60
2023/01/22 05:10:52;;;;;;;7.10;6.20;;;1.70;99.90;;;;;;5035527;28;21038;-61
2023/01/22 05:13:25;;;;;;;7.13;6.30;;;1.70;99.90;;;;;;5033730;28;20903;-61
2023/01/22 05:15:55;;;;;;;7.80;6.10;;;1.70;99.90;;;;;;5033840;28;20467;-61
2023/01/22 05:18:25;;;;;;;6.73;5.83;;;1.70;99.90;;;;;;5033754;28;20975;-61
2023/01/22 05:20:53;;;;;;;7.93;5.93;;;1.70;99.90;;;;;;5033723;28;20471;-60
2023/01/22 05:23:23;;;;;;;7.03;6.13;;;1.70;99.90;;;;;;5033595;28;20556;-61
2023/01/22 05:25:51;;;;;;;10.53;6.00;;;1.70;99.90;;;;;;5035201;28;20474;-61
2023/01/22 05:28:28;;;;;;;6.53;5.57;;;1.70;99.90;;;;;;5048205;28;21020;-61
2023/01/22 05:31:29;;;;;;;9.70;6.13;;;1.70;99.90;;;;;;5015247;28;20484;-60
2023/01/22 05:34:03;;;;;;;8.50;5.70;;;1.70;99.90;;;;;;5050983;28;20577;-61
2023/01/22 05:36:31;;;;;;;8.23;5.57;;;1.70;99.90;;;;;;5039777;28;20471;-61
2023/01/22 05:39:05;;;;;;;8.07;5.73;;;1.80;99.90;;;;;;5033607;28;20558;-61
2023/01/22 05:41:34;;;;;;;7.07;5.80;;;1.80;99.90;;;;;;5033188;28;20471;-61
2023/01/22 05:44:02;;;;;;;8.23;6.17;;;1.80;99.90;;;;;;5034089;28;20471;-61
2023/01/22 05:46:33;;;;;;;9.47;5.87;;;1.80;99.90;;;;;;5049304;28;20478;-61
2023/01/22 05:49:19;;;;;;;8.33;5.77;;;1.80;99.90;;;;;;5032482;28;20825;-60
2023/01/22 05:51:48;;;;;;;7.07;6.23;;;1.70;99.90;;;;;;5031639;28;20472;-60
2023/01/22 05:54:17;;;;;;;8.87;5.87;;;1.80;99.90;;;;;;5049220;28;20484;-60
2023/01/22 05:56:46;;;;;;;7.47;5.60;;;1.80;99.90;;;;;;5032475;28;20524;-60
2023/01/22 05:59:15;;;;;;;6.37;5.53;;;1.70;99.90;;;;;;5054740;28;20542;-60
2023/01/22 06:01:49;;;;;;;8.77;5.60;;;1.70;99.90;;;;;;5031725;28;20473;-61
2023/01/22 06:04:17;;;;;;;7.90;5.93;;;1.70;99.90;;;;;;5039557;28;20459;-61
2023/01/22 06:06:45;;;;;;;9.47;6.77;;;1.80;99.90;;;;;;5032653;28;20460;-61
2023/01/22 06:09:14;;;;;;;7.17;6.10;;;1.80;99.90;;;;;;5033893;28;20983;-60
2023/01/22 06:11:43;;;;;;;8.50;5.83;;;1.70;99.90;;;;;;5032109;28;20542;-61
2023/01/22 06:14:11;;;;;;;7.53;5.40;;;1.70;99.90;;;;;;5032250;28;20999;-60
2023/01/22 06:16:39;;;;;;;7.83;5.77;;;1.70;99.90;;;;;;5032099;28;20508;-61
2023/01/22 06:19:13;;;;;;;7.27;5.30;;;1.70;99.90;;;;;;5030153;28;20483;-61
2023/01/22 06:21:45;;;;;;;7.93;5.60;;;1.70;99.90;;;;;;5048612;28;20558;-61
2023/01/22 06:24:13;;;;;;;7.10;5.90;;;1.80;99.90;;;;;;5048814;28;20468;-61
2023/01/22 06:26:41;;;;;;;8.63;6.13;;;1.80;99.90;;;;;;5031873;28;20501;-61
2023/01/22 06:29:12;;;;;;;7.40;5.47;;;1.80;99.90;;;;;;5032720;28;20500;-60
2023/01/22 06:31:41;;;;;;;6.97;5.47;;;1.80;99.90;;;;;;5031321;28;20476;-61
2023/01/22 06:34:16;;;;;;;6.80;5.33;;;1.80;99.90;;;;;;5055759;28;20840;-61
2023/01/22 06:36:44;;;;;;;7.57;5.63;;;1.80;99.90;;;;;;5048968;28;20465;-61
2023/01/22 06:39:14;;;;;;;5.80;5.20;;;1.80;99.90;;;;;;5033085;28;20460;-61
2023/01/22 06:41:57;;;;;;;8.60;6.17;;;1.80;99.90;;;;;;5047095;28;20543;-61
2023/01/22 06:44:25;;;;;;;7.27;5.80;;;1.80;99.90;;;;;;5047642;28;20467;-61
2023/01/22 06:46:53;;;;;;;8.30;5.97;;;1.80;99.90;;;;;;5031719;28;20559;-61
2023/01/22 06:49:26;;;;;;;7.13;5.80;;;1.70;99.90;;;;;;5048084;28;20843;-61
2023/01/22 06:51:55;;;;;;;10.17;6.30;;;1.80;99.90;;;;;;5033288;28;20468;-61
2023/01/22 06:54:23;;;;;;;7.30;5.47;;;1.80;99.90;;;;;;5048247;28;20848;-61
2023/01/22 06:56:51;;;;;;;7.27;5.80;;;1.80;99.90;;;;;;5048853;28;20464;-61
2023/01/22 06:59:22;;;;;;;7.43;6.03;;;1.80;99.90;;;;;;5060524;28;20563;-61
2023/01/22 07:01:50;;;;;;;8.50;5.77;;;1.80;99.90;;;;;;5035025;28;20482;-61
2023/01/22 07:04:18;;;;;;;10.43;6.53;;;1.80;99.90;;;;;;5051198;28;20469;-61
2023/01/22 07:06:48;;;;;;;7.50;5.77;;;1.80;99.90;;;;;;5035880;28;20859;-61
2023/01/22 07:09:18;;;;;;;7.47;6.10;;;1.80;99.90;;;;;;5033231;28;20562;-61
2023/01/22 07:11:46;;;;;;;8.50;5.73;;;1.80;99.90;;;;;;5033163;28;20883;-61
2023/01/22 07:14:14;;;;;;;6.97;5.47;;;1.80;99.90;;;;;;5033272;28;20508;-61
2023/01/22 07:16:42;;;;;;;6.53;5.83;;;1.80;99.90;;;;;;5033013;28;20487;-61
2023/01/22 07:19:10;;;;;;;9.33;5.37;;;1.80;99.90;;;;;;5033130;28;20848;-61
2023/01/22 07:21:38;;;;;;;8.17;6.20;;;1.80;99.90;;;;;;5032959;28;20456;-61
2023/01/22 07:24:07;;;;;;;10.03;5.80;;;1.80;99.90;;;;;;5032529;28;20518;-61
2023/01/22 07:26:37;;;;;;;9.57;6.17;;;1.90;99.90;;;;;;5032250;28;20543;-61
2023/01/22 07:29:05;;;;;;;8.63;5.77;;;1.90;99.90;;;;;;5032628;28;20825;-61
2023/01/22 07:31:33;;;;;;;9.13;5.83;;;1.90;99.90;;;;;;5031589;28;20478;-61
2023/01/22 07:34:02;;;;;;;7.77;5.73;;;1.90;99.90;;;;;;5043657;28;20514;-61
2023/01/22 07:36:30;;;;;;;9.17;5.60;;;1.90;99.90;;;;;;5037722;28;20967;-60
2023/01/22 07:38:58;;;;;;;7.23;5.40;;;1.90;99.90;;;;;;5032221;28;20476;-61
2023/01/22 07:41:27;;;;;;;7.17;5.17;;;1.90;99.90;;;;;;5032469;28;20468;-61
2023/01/22 07:43:58;;;;;;;8.20;5.47;;;1.90;99.90;;;;;;5033804;28;20459;-61
2023/01/22 07:46:27;;;;;;;6.87;5.60;;;1.90;99.90;;;;;;5033798;28;20498;-61
2023/01/22 07:48:55;;;;;;;10.70;6.53;;;1.90;99.90;;;;;;5032074;28;20479;-61
2023/01/22 07:51:23;;;;;;;7.87;5.23;;;1.90;99.90;;;;;;5029980;28;20474;-61
2023/01/22 07:53:51;;;;;;;8.67;5.97;;;1.90;99.90;;;;;;5032062;28;20999;-61
2023/01/22 07:56:19;;;;;;;7.70;6.23;;;1.90;99.90;;;;;;5031782;28;20790;-60
2023/01/22 07:58:49;;;;;;;7.80;5.73;;;2.00;99.90;;;;;;5031786;28;20472;-60
2023/01/22 08:01:17;;;;;;;7.77;5.70;;;2.00;99.90;;;;;;5031181;28;20468;-61
2023/01/22 08:03:45;;;;;;;8.30;5.70;;;2.00;99.90;;;;;;5035455;28;20473;-61
2023/01/22 08:06:19;;;;;;;7.60;5.83;;;2.00;99.90;;;;;;5033160;28;20474;-61
2023/01/22 08:08:47;;;;;;;8.20;5.57;;;2.00;99.90;;;;;;5029913;28;20474;-61
2023/01/22 08:11:15;;;;;;;7.87;5.87;;;2.00;99.90;;;;;;5032334;28;20465;-61
2023/01/22 08:13:43;;;;;;;8.17;6.03;;;2.00;99.90;;;;;;5031957;28;20532;-61
2023/01/22 08:16:13;;;;;;;8.10;5.70;;;2.00;99.90;;;;;;5035199;28;20821;-61
2023/01/22 08:18:41;;;;;;;6.77;5.67;;;2.00;99.90;;;;;;5035596;28;20476;-61
2023/01/22 08:21:09;;;;;;;9.47;6.43;;;2.10;99.90;;;;;;5035941;28;20466;-60
2023/01/22 08:23:37;;;;;;;9.43;5.80;;;2.10;99.90;;;;;;5033023;28;20476;-61
2023/01/22 08:26:05;;;;;;;10.67;6.00;;;2.00;99.90;;;;;;5035961;28;20459;-61
2023/01/22 08:28:33;;;;;;;10.50;5.90;;;2.00;99.90;;;;;;5037652;28;20547;-60
2023/01/22 08:31:03;;;;;;;6.93;5.50;;;2.00;99.90;;;;;;5037551;28;20818;-61
2023/01/22 08:33:34;;;;;;;9.20;6.13;;;2.00;99.90;;;;;;5047462;28;20855;-61
2023/01/22 08:36:02;;;;;;;6.80;5.47;;;2.10;99.90;;;;;;5045105;28;20552;-61
2023/01/22 08:38:30;;;;;;;8.67;5.97;;;2.10;99.90;;;;;;5035567;28;20468;-60
2023/01/22 08:40:58;;;;;;;8.60;5.83;;;2.10;99.90;;;;;;5035788;28;20828;-61
2023/01/22 08:43:26;;;;;;;8.53;6.00;;;2.10;99.90;;;;;;5035699;28;20472;-61
2023/01/22 08:45:54;;;;;;;9.87;6.20;;;2.20;99.90;;;;;;5035961;28;20460;-60
2023/01/22 08:48:22;;;;;;;7.83;5.73;;;2.20;99.90;;;;;;5035572;28;20472;-61
2023/01/22 08:50:52;;;;;;;8.70;5.90;;;2.20;99.90;;;;;;5035548;28;20971;-60
2023/01/22 08:53:20;;;;;;;7.93;5.77;;;2.20;99.90;;;;;;5035439;28;20469;-61
2023/01/22 08:55:51;;;;;;;9.43;5.70;;;2.20;99.90;;;;;;5034879;28;20499;-61
2023/01/22 08:58:20;;;;;;;7.80;5.77;;;2.20;99.90;;;;;;5034282;28;20473;-61
2023/01/22 09:00:49;;;;;;;8.77;6.10;;;2.20;99.90;;;;;;5034655;28;20484;-60
2023/01/22 09:03:17;;;;;;;10.53;5.70;;;2.30;99.90;;;;;;5041021;28;20459;-61
2023/01/22 09:05:45;;;;;;;13.60;5.70;;;2.30;99.90;;;;;;5040653;28;20467;-65
2023/01/22 09:08:14;;;;;;;9.27;6.00;;;2.30;99.90;;;;;;5034907;28;20468;-65
2023/01/22 09:10:43;;;;;;;10.40;6.10;;;2.30;99.90;;;;;;5034658;28;20485;-61
2023/01/22 09:13:11;;;;;;;10.00;5.27;;;2.30;99.90;;;;;;5035382;28;20970;-61
2023/01/22 09:15:40;;;;;;;8.13;6.13;;;2.30;99.90;;;;;;5034971;28;20491;-61
2023/01/22 09:18:08;;;;;;;7.90;5.47;;;2.40;99.90;;;;;;5034452;28;20477;-61
2023/01/22 09:20:36;;;;;;;8.17;6.00;;;2.40;99.90;;;;;;5034815;28;21026;-61
2023/01/22 09:23:06;;;;;;;7.93;5.43;;;2.40;99.90;;;;;;5032089;28;20475;-61
2023/01/22 09:25:37;;;;;;;7.47;5.80;;;2.40;99.90;;;;;;5046705;28;20476;-61
2023/01/22 09:28:08;;;;;;;8.77;5.40;;;2.40;99.90;;;;;;5045219;28;20456;-60
2023/01/22 09:30:38;;;;;;;8.57;5.93;;;2.40;99.90;;;;;;5042204;28;20492;-61
2023/01/22 09:33:06;;;;;;;7.37;5.50;;;2.40;99.90;;;;;;5045850;28;20463;-60
2023/01/22 09:35:34;;;;;;;7.57;5.73;;;2.40;99.90;;;;;;5047294;28;20492;-61
2023/01/22 09:38:04;;;;;;;9.63;5.57;;;2.40;99.90;;;;;;5050346;28;21019;-61
2023/01/22 09:40:38;;;;;;;8.73;5.67;;;2.40;99.90;;;;;;5049487;28;20475;-60
2023/01/22 09:43:23;;;;;;;12.20;5.70;;;2.40;99.90;;;;;;5048131;28;20857;-61
2023/01/22 09:45:55;;;;;;;9.60;5.20;;;2.40;99.90;;;;;;5048304;28;20466;-61
2023/01/22 09:48:26;;;;;;;7.80;5.00;;;2.50;99.90;;;;;;5049222;28;20510;-61
2023/01/22 09:50:54;;;;;;;7.90;5.30;;;2.40;99.90;;;;;;5048637;28;20470;-61
2023/01/22 09:53:22;;;;;;;10.63;5.93;;;2.40;99.90;;;;;;5050020;28;20461;-61
2023/01/22 09:55:54;;;;;;;7.43;5.67;;;2.50;99.90;;;;;;5046947;28;20492;-61
2023/01/22 09:58:23;;;;;;;8.17;5.40;;;2.50;99.90;;;;;;5049519;28;20822;-60
2023/01/22 10:00:55;;;;;;;7.50;5.50;;;2.50;99.90;;;;;;5047452;28;20479;-60
2023/01/22 10:03:26;;;;;;;10.27;5.50;;;2.50;99.90;;;;;;5048472;28;21020;-61
2023/01/22 10:05:58;;;;;;;8.87;5.67;;;2.50;99.90;;;;;;5049016;28;20475;-61
2023/01/22 10:08:32;;;;;;;9.90;5.90;;;2.50;99.90;;;;;;5045947;28;20487;-61
2023/01/22 10:11:03;;;;;;;8.40;5.03;;;2.50;99.90;;;;;;5044853;28;20567;-60
2023/01/22 10:13:33;;;;;;;8.27;5.60;;;2.50;99.90;;;;;;5044922;28;20471;-61
2023/01/22 10:16:02;;;;;;;7.03;5.07;;;2.50;99.90;;;;;;5045099;28;20485;-61
2023/01/22 10:18:36;;;;;;;7.50;5.20;;;2.50;99.90;;;;;;5043923;28;20479;-60
2023/01/22 10:21:14;;;;;;;8.43;5.30;;;2.50;99.90;;;;;;5042783;28;20487;-61
2023/01/22 10:23:42;;;;;;;8.07;5.00;;;2.50;99.90;;;;;;5044071;28;20989;-60
2023/01/22 10:26:16;;;;;;;6.30;5.23;;;2.50;99.90;;;;;;5044609;28;20466;-61
2023/01/22 10:28:47;;;;;;;9.93;5.70;;;2.50;99.90;;;;;;5045174;28;20467;-60
2023/01/22 10:31:24;;;;;;;9.37;5.60;;;2.60;99.90;;;;;;5043905;28;21017;-61
2023/01/22 10:33:58;;;;;;;8.07;5.97;;;2.50;99.90;;;;;;5046253;28;20490;-61
2023/01/22 10:36:27;;;;;;;9.20;5.57;;;2.60;99.90;;;;;;5048508;28;20491;-61
2023/01/22 10:39:14;;;;;;;9.60;5.53;;;2.60;99.90;;;;;;5048756;28;20464;-60
2023/01/22 10:41:45;;;;;;;8.30;5.73;;;2.50;99.90;;;;;;5048093;28;20467;-61
2023/01/22 10:44:20;;;;;;;9.90;5.30;;;2.60;99.90;;;;;;5048928;28;21003;-61
2023/01/22 10:46:49;;;;;;;11.47;6.13;;;2.60;99.90;;;;;;5047343;28;20455;-61
2023/01/22 10:49:20;;;;;;;8.47;5.60;;;2.60;99.90;;;;;;5047777;28;20472;-61
2023/01/22 10:51:54;;;;;;;8.80;5.50;;;2.70;99.90;;;;;;5048995;28;20459;-61
2023/01/22 10:54:28;;;;;;;11.93;5.90;;;2.70;99.90;;;;;;5048451;28;20477;-61
2023/01/22 10:57:07;;;;;;;8.73;5.67;;;2.70;99.90;;;;;;5048840;28;21031;-60
2023/01/22 10:59:35;;;;;;;10.50;5.80;;;2.70;99.90;;;;;;5047542;28;20479;-60
2023/01/22 11:02:14;;;;;;;10.40;5.70;;;2.70;99.90;;;;;;5048312;28;20476;-61
2023/01/22 11:04:43;;;;;;;9.93;5.80;;;2.70;99.90;;;;;;5048146;28;20463;-61
2023/01/22 11:07:16;;;;;;;11.50;6.37;;;2.80;99.90;;;;;;5042199;28;20980;-61
2023/01/22 11:09:49;;;;;;;9.53;6.30;;;2.80;99.90;;;;;;5052821;28;20474;-61
2023/01/22 11:12:22;;;;;;;8.80;5.70;;;2.80;99.90;;;;;;5052906;28;20459;-61
2023/01/22 11:14:58;;;;;;;9.83;5.83;;;2.80;99.90;;;;;;5037142;28;20477;-61
2023/01/22 11:17:33;;;;;;;10.97;5.93;;;2.80;99.90;;;;;;5027568;28;20461;-60
2023/01/22 11:20:11;;;;;;;8.13;6.10;;;2.90;99.90;;;;;;5032325;28;20468;-61
2023/01/22 11:22:43;;;;;;;10.70;5.80;;;2.90;99.90;;;;;;5032269;28;20459;-61
2023/01/22 11:25:12;;;;;;;8.37;6.07;;;3.00;99.90;;;;;;5030722;28;20465;-61
2023/01/22 11:28:00;;;;;;;8.40;5.77;;;3.00;99.90;;;;;;5034325;28;20474;-61
2023/01/22 11:31:08;;;;;;;10.23;6.00;;;3.00;99.90;;;;;;5031410;28;20518;-61
2023/01/22 11:34:06;;;;;;;10.03;5.77;;;3.00;99.90;;;;;;5030588;28;20475;-61
2023/01/22 11:36:39;;;;;;;9.33;5.70;;;3.10;99.90;;;;;;5028285;28;20484;-61
2023/01/22 11:39:18;;;;;;;9.80;5.90;;;3.00;99.90;;;;;;5032349;28;20533;-61
2023/01/22 11:42:00;;;;;;;10.03;5.67;;;3.10;99.90;;;;;;5032816;28;20467;-61
2023/01/22 11:44:41;;;;;;;9.90;5.77;;;3.10;99.90;;;;;;5032408;28;20456;-61
2023/01/22 11:47:26;;;;;;;8.83;5.63;;;3.10;99.90;;;;;;5032847;28;20477;-61
2023/01/22 11:50:15;;;;;;;9.50;5.50;;;3.10;99.90;;;;;;5033802;28;20973;-61
2023/01/22 11:52:50;;;;;;;9.57;5.57;;;3.10;99.90;;;;;;5035625;28;20820;-61
2023/01/22 11:55:31;;;;;;;7.37;5.70;;;3.10;99.90;;;;;;5031035;28;20472;-61
2023/01/22 11:58:09;;;;;;;11.30;5.43;;;3.10;99.90;;;;;;5024795;28;20475;-61
2023/01/22 12:00:54;;;;;;;10.03;5.37;;;3.10;99.90;;;;;;5043471;28;20842;-60
2023/01/22 12:03:49;;;;;;;7.13;5.80;;;3.10;99.90;;;;;;5056343;28;20461;-61
2023/01/22 12:06:32;;;;;;;8.60;5.20;;;3.10;99.90;;;;;;5032203;28;20540;-61
2023/01/22 12:09:10;;;;;;;9.37;5.47;;;3.10;99.90;;;;;;5016584;28;20462;-61
2023/01/22 12:11:51;;;;;;;12.63;5.80;;;3.10;99.90;;;;;;5016741;28;20484;-60
2023/01/22 12:14:38;;;;;;;8.10;5.77;;;3.10;99.90;;;;;;5016761;28;20828;-61
2023/01/22 12:17:16;;;;;;;9.30;5.90;;;3.00;99.90;;;;;;5016411;28;20485;-61
2023/01/22 12:20:01;;;;;;;8.27;5.40;;;3.10;99.90;;;;;;5030226;28;20473;-59
2023/01/22 12:22:36;;;;;;;13.90;6.20;;;3.00;99.90;;;;;;5034847;28;20540;-61
2023/01/22 12:25:14;;;;;;;11.20;5.77;;;3.00;99.90;;;;;;5036078;28;20984;-61
2023/01/22 12:27:47;;;;;;;8.53;5.77;;;3.00;99.90;;;;;;5035297;28;20990;-61
2023/01/22 12:30:22;;;;;;;8.83;5.67;;;3.10;99.90;;;;;;5032492;28;20469;-61
2023/01/22 12:32:55;;;;;;;14.17;5.63;;;3.10;99.90;;;;;;5055736;28;20480;-61
2023/01/22 12:35:24;;;;;;;10.23;5.17;;;3.10;99.90;;;;;;5047758;28;20462;-61
2023/01/22 12:37:59;;;;;;;9.43;5.63;;;3.00;99.90;;;;;;5024427;28;20993;-60
2023/01/22 12:40:57;;;;;;;9.07;5.30;;;3.10;99.90;;;;;;5016938;28;20472;-60
2023/01/22 12:43:31;;;;;;;12.93;6.10;;;3.10;99.90;;;;;;5034345;28;20968;-60
2023/01/22 12:46:08;;;;;;;8.87;5.60;;;3.10;99.90;;;;;;5035728;28;20554;-61
2023/01/22 12:48:49;;;;;;;8.23;5.30;;;3.10;99.90;;;;;;5035825;28;21036;-61
2023/01/22 12:51:26;;;;;;;10.03;5.10;;;3.10;99.90;;;;;;5035515;28;20480;-61
2023/01/22 12:53:54;;;;;;;7.63;5.10;;;3.10;99.90;;;;;;5035178;28;20472;-60
2023/01/22 12:56:31;;;;;;;11.47;5.13;;;3.20;99.90;;;;;;5035016;28;20482;-61
2023/01/22 12:58:59;;;;;;;9.23;5.30;;;3.20;99.90;;;;;;5035672;28;20806;-61
2023/01/22 13:01:34;;;;;;;7.13;4.53;;;3.20;99.90;;;;;;5034547;28;20598;-61
2023/01/22 13:04:05;;;;;;;9.10;4.97;;;3.20;99.90;;;;;;5034226;28;20462;-61
2023/01/22 13:06:35;;;;;;;8.83;4.20;;;3.20;99.90;;;;;;5032937;28;20470;-61
2023/01/22 13:09:06;;;;;;;9.47;4.63;;;3.20;99.90;;;;;;5034916;28;20986;-60
2023/01/22 13:11:36;;;;;;;7.33;4.43;;;3.30;99.90;;;;;;5032477;28;20477;-61
2023/01/22 13:14:18;;;;;;;7.37;4.43;;;3.30;99.90;;;;;;5034703;28;20467;-61
2023/01/22 13:16:52;;;;;;;9.23;4.50;;;3.30;99.90;;;;;;5034700;28;20491;-61
2023/01/22 13:19:23;;;;;;;8.10;4.70;;;3.30;99.90;;;;;;5035379;28;21030;-61
2023/01/22 13:21:53;;;;;;;11.27;4.57;;;3.30;99.90;;;;;;5035062;28;20515;-60
2023/01/22 13:24:21;;;;;;;7.73;3.80;;;3.40;99.90;;;;;;5035227;28;20966;-61
2023/01/22 13:26:52;;;;;;;9.40;3.97;;;3.40;99.90;;;;;;5035133;28;20477;-60